createdAt,value
2019-05-06T00:00:24.655Z,8.00
2019-05-06T00:02:54.537Z,7.83
2019-05-06T00:05:25.392Z,10.60
2019-05-06T00:07:54.438Z,6.33
2019-05-06T00:10:25.349Z,9.28
2019-05-06T00:12:54.635Z,7.10
2019-05-06T00:15:23.510Z,6.83
2019-05-06T00:17:53.880Z,6.65
2019-05-06T00:20:24.375Z,10.23
2019-05-06T00:22:54.623Z,9.35
2019-05-06T00:25:24.883Z,6.37
2019-05-06T00:28:10.264Z,6.15
2019-05-06T00:30:40.312Z,8.05
2019-05-06T00:33:08.792Z,8.00
2019-05-06T00:35:37.274Z,6.35
2019-05-06T00:38:05.745Z,7.42
2019-05-06T00:40:38.528Z,7.17
2019-05-06T00:43:08.592Z,10.23
2019-05-06T00:45:37.070Z,7.70
2019-05-06T00:48:05.551Z,5.47
2019-05-06T00:50:34.855Z,5.87
2019-05-06T00:53:05.060Z,9.28
2019-05-06T00:55:33.885Z,7.45
2019-05-06T00:58:04.083Z,7.87
2019-05-06T01:00:34.223Z,8.58
2019-05-06T01:03:04.253Z,8.68
2019-05-06T01:05:33.788Z,8.23
2019-05-06T01:08:04.015Z,13.08
2019-05-06T01:10:34.391Z,10.48
2019-05-06T01:13:07.370Z,6.22
2019-05-06T01:15:35.952Z,7.80
2019-05-06T01:18:04.429Z,7.05
2019-05-06T01:20:33.963Z,8.63
2019-05-06T01:23:03.736Z,11.25
2019-05-06T01:25:34.465Z,8.50
2019-05-06T01:28:04.267Z,8.35
2019-05-06T01:30:33.673Z,7.62
2019-05-06T01:33:03.997Z,7.55
2019-05-06T01:35:35.051Z,8.93
2019-05-06T01:38:20.561Z,6.42
2019-05-06T01:40:54.678Z,7.75
2019-05-06T01:43:27.534Z,7.95
2019-05-06T01:45:56.010Z,13.95
2019-05-06T01:48:44.303Z,17.37
2019-05-06T01:51:14.303Z,97.67
2019-05-06T01:53:44.828Z,171.43
2019-05-06T01:56:14.544Z,23.35
2019-05-06T01:58:43.970Z,29.82
2019-05-06T02:01:14.875Z,18.17
2019-05-06T02:03:44.248Z,13.35
2019-05-06T02:06:14.046Z,10.75
2019-05-06T02:08:44.854Z,13.72
2019-05-06T02:11:14.853Z,11.20
2019-05-06T02:13:44.227Z,12.70
2019-05-06T02:16:14.553Z,32.17
2019-05-06T02:18:44.847Z,20.25
2019-05-06T02:21:15.181Z,16.70
2019-05-06T02:23:54.154Z,18.80
2019-05-06T02:26:23.904Z,18.20
2019-05-06T02:28:54.579Z,13.75
2019-05-06T02:31:40.985Z,15.18
2019-05-06T02:34:16.916Z,13.75
2019-05-06T02:36:49.792Z,13.95
2019-05-06T02:39:18.262Z,10.90
2019-05-06T02:41:46.755Z,13.90
2019-05-06T02:44:15.239Z,13.55
2019-05-06T02:46:45.277Z,11.83
2019-05-06T02:49:24.333Z,16.57
2019-05-06T02:51:53.466Z,14.28
2019-05-06T02:54:23.412Z,17.27
2019-05-06T02:56:53.105Z,13.45
2019-05-06T02:59:24.119Z,17.30
2019-05-06T03:01:53.826Z,16.07
2019-05-06T03:04:23.602Z,15.28
2019-05-06T03:06:53.443Z,12.70
2019-05-06T03:09:23.274Z,14.47
2019-05-06T03:11:53.970Z,17.62
2019-05-06T03:14:23.385Z,16.95
2019-05-06T03:16:53.790Z,12.30
2019-05-06T03:19:24.055Z,11.57
2019-05-06T03:22:06.238Z,14.58
2019-05-06T03:24:38.743Z,16.67
2019-05-06T03:27:07.208Z,15.50
2019-05-06T03:29:35.684Z,12.35
2019-05-06T03:32:06.853Z,14.53
2019-05-06T03:34:58.768Z,20.72
2019-05-06T03:37:07.313Z,15.30
2019-05-06T03:39:34.808Z,16.67
2019-05-06T03:42:04.668Z,12.37
2019-05-06T03:44:34.823Z,13.90
2019-05-06T03:47:23.528Z,9.70
2019-05-06T03:49:54.753Z,11.78
2019-05-06T03:52:23.455Z,11.60
2019-05-06T03:54:53.594Z,11.70
2019-05-06T03:57:23.479Z,16.35
2019-05-06T03:59:52.945Z,12.50
2019-05-06T04:02:24.015Z,9.40
2019-05-06T04:04:55.824Z,8.68
2019-05-06T04:07:23.440Z,13.88
2019-05-06T04:09:53.677Z,9.93
2019-05-06T04:12:23.520Z,13.45
2019-05-06T04:14:53.980Z,8.33
2019-05-06T04:17:28.062Z,7.42
2019-05-06T04:19:58.110Z,11.73
2019-05-06T04:22:33.209Z,11.73
2019-05-06T04:25:04.079Z,8.03
2019-05-06T04:27:37.730Z,9.25
2019-05-06T04:30:06.533Z,7.90
2019-05-06T04:32:35.000Z,9.58
2019-05-06T04:35:04.408Z,6.72
2019-05-06T04:37:34.043Z,7.58
2019-05-06T04:40:04.613Z,5.80
2019-05-06T04:42:34.462Z,5.67
2019-05-06T04:45:04.600Z,4.37
2019-05-06T04:47:33.612Z,7.75
2019-05-06T04:50:04.951Z,10.40
2019-05-06T04:52:34.285Z,8.60
2019-05-06T04:55:03.467Z,7.28
2019-05-06T04:57:33.625Z,4.90
2019-05-06T05:00:04.095Z,7.90
2019-05-06T05:02:33.685Z,7.20
2019-05-06T05:05:04.126Z,8.58
2019-05-06T05:07:33.434Z,8.50
2019-05-06T05:10:03.781Z,14.50
2019-05-06T05:12:36.703Z,12.93
2019-05-06T05:15:17.503Z,15.63
2019-05-06T05:17:47.561Z,18.67
2019-05-06T05:20:16.047Z,16.05
2019-05-06T05:22:44.521Z,15.50
2019-05-06T05:25:13.013Z,14.73
2019-05-06T05:27:42.106Z,16.30
2019-05-06T05:30:12.494Z,13.90
2019-05-06T05:32:42.861Z,17.75
2019-05-06T05:35:12.766Z,13.68
2019-05-06T05:37:41.938Z,15.85
2019-05-06T05:40:12.787Z,21.77
2019-05-06T05:42:48.195Z,14.68
2019-05-06T05:45:16.786Z,20.08
2019-05-06T05:47:45.667Z,18.60
2019-05-06T05:50:15.717Z,20.97
2019-05-06T05:52:44.209Z,20.10
2019-05-06T05:55:12.690Z,18.12
2019-05-06T05:57:43.087Z,19.62
2019-05-06T06:00:12.952Z,19.23
2019-05-06T06:02:43.714Z,18.77
2019-05-06T06:05:12.471Z,17.70
2019-05-06T06:07:42.218Z,17.82
2019-05-06T06:10:28.768Z,16.55
2019-05-06T06:12:57.261Z,18.35
2019-05-06T06:15:27.322Z,15.55
2019-05-06T06:18:13.687Z,19.07
2019-05-06T06:21:16.589Z,15.05
2019-05-06T06:23:34.593Z,14.55
2019-05-06T06:26:03.966Z,13.15
2019-05-06T06:28:33.300Z,14.45
2019-05-06T06:31:09.488Z,13.40
2019-05-06T06:33:37.968Z,13.15
2019-05-06T06:36:20.324Z,13.68
2019-05-06T06:39:02.304Z,16.35
2019-05-06T06:41:32.304Z,19.02
2019-05-06T06:44:17.630Z,19.52
2019-05-06T06:46:46.108Z,18.70
2019-05-06T06:49:14.584Z,17.80
2019-05-06T06:51:43.072Z,18.55
2019-05-06T06:54:12.274Z,22.35
2019-05-06T06:57:05.554Z,23.92
2019-05-06T06:59:29.236Z,24.77
2019-05-06T07:01:59.480Z,22.77
2019-05-06T07:04:45.998Z,20.15
2019-05-06T07:07:16.047Z,24.23
2019-05-06T07:09:44.542Z,24.72
2019-05-06T07:12:13.353Z,21.10
2019-05-06T07:14:42.808Z,23.07
2019-05-06T07:17:13.378Z,21.20
2019-05-06T07:19:43.238Z,22.32
2019-05-06T07:22:12.714Z,18.35
2019-05-06T07:24:43.119Z,20.85
2019-05-06T07:27:19.254Z,17.77
2019-05-06T07:29:48.668Z,18.57
2019-05-06T07:32:17.294Z,16.87
2019-05-06T07:34:45.795Z,16.27
2019-05-06T07:37:14.279Z,13.60
2019-05-06T07:39:44.332Z,14.30
2019-05-06T07:42:14.377Z,11.97
2019-05-06T07:44:47.196Z,12.98
2019-05-06T07:47:29.474Z,14.80
2019-05-06T07:49:58.007Z,14.38
2019-05-06T07:52:26.486Z,15.90
2019-05-06T07:54:54.950Z,15.10
2019-05-06T07:57:23.432Z,14.43
2019-05-06T07:59:52.552Z,13.18
2019-05-06T08:02:22.965Z,11.35
2019-05-06T08:04:53.221Z,13.03
2019-05-06T08:07:22.278Z,15.23
2019-05-06T08:09:52.888Z,13.55
2019-05-06T08:12:22.403Z,13.93
2019-05-06T08:14:52.423Z,13.20
2019-05-06T08:17:22.690Z,14.95
2019-05-06T08:19:52.879Z,11.85
2019-05-06T08:22:33.384Z,6.15
2019-05-06T08:25:03.479Z,6.83
2019-05-06T08:27:32.980Z,6.40
2019-05-06T08:30:02.428Z,8.00
2019-05-06T08:32:32.180Z,4.87
2019-05-06T08:35:03.112Z,5.75
2019-05-06T08:37:35.704Z,6.85
2019-05-06T08:40:04.882Z,4.08
2019-05-06T08:42:33.377Z,7.05
2019-05-06T08:45:02.319Z,6.90
2019-05-06T08:47:32.847Z,5.28
2019-05-06T08:50:02.681Z,3.27
2019-05-06T08:52:32.726Z,5.70
2019-05-06T08:55:04.314Z,6.80
2019-05-06T08:57:32.433Z,3.40
2019-05-06T09:00:03.376Z,2.70
2019-05-06T09:02:32.434Z,5.60
2019-05-06T09:05:02.876Z,5.03
2019-05-06T09:07:32.040Z,3.45
2019-05-06T09:10:02.642Z,5.92
2019-05-06T09:12:32.929Z,6.05
2019-05-06T09:15:03.452Z,6.15
2019-05-06T09:17:33.029Z,9.13
2019-05-06T09:20:02.650Z,13.45
2019-05-06T09:22:32.608Z,12.25
2019-05-06T09:25:02.468Z,7.70
2019-05-06T09:27:47.806Z,6.08
2019-05-06T09:30:18.555Z,8.93
2019-05-06T09:32:47.036Z,6.30
2019-05-06T09:35:15.512Z,6.37
2019-05-06T09:37:43.976Z,2.72
2019-05-06T09:40:12.748Z,4.00
2019-05-06T09:42:42.602Z,6.12
2019-05-06T09:45:12.476Z,6.85
2019-05-06T09:47:59.115Z,7.75
2019-05-06T09:50:46.419Z,6.20
2019-05-06T09:53:16.713Z,6.08
2019-05-06T09:56:03.512Z,4.67
2019-05-06T09:58:33.395Z,5.83
2019-05-06T10:01:02.906Z,8.28
2019-05-06T10:03:32.256Z,13.55
2019-05-06T10:06:02.778Z,10.10
2019-05-06T10:08:32.320Z,12.13
2019-05-06T10:11:02.947Z,7.28
2019-05-06T10:13:32.708Z,9.58
2019-05-06T10:16:02.949Z,8.63
2019-05-06T10:18:31.692Z,18.67
2019-05-06T10:21:00.162Z,5.72
2019-05-06T10:23:28.648Z,19.62
2019-05-06T10:25:57.138Z,10.28
2019-05-06T10:28:42.240Z,13.05
2019-05-06T10:31:12.837Z,16.00
2019-05-06T10:33:59.218Z,22.73
2019-05-06T10:36:28.589Z,10.25
2019-05-06T10:38:59.374Z,8.90
2019-05-06T10:41:33.322Z,15.18
2019-05-06T10:44:14.081Z,6.55
2019-05-06T10:46:43.060Z,5.33
2019-05-06T10:49:13.197Z,7.00
2019-05-06T10:51:46.092Z,5.67
2019-05-06T10:54:14.564Z,5.10
2019-05-06T10:56:53.803Z,5.60
2019-05-06T10:59:16.398Z,8.33
2019-05-06T11:01:49.661Z,6.42
2019-05-06T11:04:18.179Z,4.97
2019-05-06T11:06:46.654Z,4.37
2019-05-06T11:09:15.121Z,8.98
2019-05-06T11:11:43.596Z,6.30
2019-05-06T11:14:12.929Z,6.45
2019-05-06T11:16:41.419Z,6.37
2019-05-06T11:19:09.888Z,7.53
2019-05-06T11:21:38.371Z,4.87
2019-05-06T11:24:06.868Z,4.00
2019-05-06T11:26:35.349Z,8.73
2019-05-06T11:29:12.474Z,5.33
2019-05-06T11:31:54.313Z,9.90
2019-05-06T11:34:41.924Z,8.10
2019-05-06T11:37:23.839Z,12.78
2019-05-06T11:39:52.878Z,6.72
2019-05-06T11:42:31.886Z,13.10
2019-05-06T11:44:53.053Z,10.38
2019-05-06T11:47:23.276Z,7.42
2019-05-06T11:49:56.103Z,7.92
2019-05-06T11:52:23.924Z,7.87
2019-05-06T11:54:52.916Z,12.30
2019-05-06T11:57:23.205Z,13.45
2019-05-06T11:59:52.839Z,7.65
2019-05-06T12:02:23.231Z,8.45
2019-05-06T12:04:52.849Z,4.42
2019-05-06T12:07:24.659Z,6.10
2019-05-06T12:09:53.865Z,9.83
2019-05-06T12:12:23.272Z,11.25
2019-05-06T12:14:52.724Z,8.40
2019-05-06T12:17:22.261Z,5.37
2019-05-06T12:19:52.815Z,6.17
2019-05-06T12:22:22.125Z,5.30
2019-05-06T12:24:52.513Z,4.45
2019-05-06T12:27:38.966Z,6.12
2019-05-06T12:30:07.436Z,10.53
2019-05-06T12:32:37.494Z,8.00
2019-05-06T12:35:07.161Z,6.85
2019-05-06T12:37:36.650Z,6.97
2019-05-06T12:40:05.448Z,6.80
2019-05-06T12:42:35.495Z,6.97
2019-05-06T12:45:06.328Z,8.28
2019-05-06T12:47:42.638Z,8.05
2019-05-06T12:50:11.308Z,18.23
2019-05-06T12:52:39.801Z,9.53
2019-05-06T12:55:18.397Z,8.30
2019-05-06T12:57:38.674Z,8.45
2019-05-06T13:00:08.758Z,10.45
2019-05-06T13:02:37.364Z,9.30
2019-05-06T13:05:07.007Z,6.42
2019-05-06T13:07:37.039Z,6.50
2019-05-06T13:10:07.086Z,7.30
2019-05-06T13:12:36.168Z,11.20
2019-05-06T13:15:08.190Z,8.93
2019-05-06T13:17:36.345Z,9.03
2019-05-06T13:20:06.228Z,12.70
2019-05-06T13:22:36.283Z,10.85
2019-05-06T13:25:05.668Z,10.43
2019-05-06T13:27:34.160Z,101.92
2019-05-06T13:30:02.673Z,63.28
2019-05-06T13:32:32.730Z,27.93
2019-05-06T13:35:02.913Z,27.15
2019-05-06T13:37:33.594Z,40.03
2019-05-06T13:40:02.402Z,91.28
2019-05-06T13:42:33.162Z,40.12
2019-05-06T13:45:02.936Z,51.05
2019-05-06T13:47:36.094Z,97.27
2019-05-06T13:50:06.383Z,41.70
2019-05-06T13:52:36.435Z,99.95
2019-05-06T13:55:07.034Z,123.07
2019-05-06T13:57:38.956Z,102.07
2019-05-06T14:00:06.620Z,72.67
2019-05-06T14:02:45.692Z,44.30
2019-05-06T14:05:14.181Z,57.48
2019-05-06T14:07:43.495Z,27.95
2019-05-06T14:10:13.212Z,22.90
2019-05-06T14:12:42.694Z,12.88
2019-05-06T14:15:12.459Z,14.95
2019-05-06T14:17:42.401Z,6.78
2019-05-06T14:20:12.500Z,8.13
2019-05-06T14:22:43.832Z,12.15
2019-05-06T14:25:16.059Z,21.40
2019-05-06T14:27:45.355Z,24.60
2019-05-06T14:30:15.401Z,12.47
2019-05-06T14:32:43.890Z,11.65
2019-05-06T14:35:12.373Z,10.05
2019-05-06T14:37:42.191Z,9.30
2019-05-06T14:40:12.392Z,11.03
2019-05-06T14:42:42.319Z,6.42
2019-05-06T14:45:12.565Z,7.55
2019-05-06T14:47:42.553Z,10.23
2019-05-06T14:50:14.387Z,9.23
2019-05-06T14:52:42.684Z,11.10
2019-05-06T14:55:15.406Z,8.68
2019-05-06T14:57:43.044Z,8.18
2019-05-06T15:00:14.463Z,11.83
2019-05-06T15:02:42.951Z,6.65
2019-05-06T15:05:13.096Z,8.28
2019-05-06T15:07:42.183Z,6.90
2019-05-06T15:10:20.368Z,5.17
2019-05-06T15:12:42.667Z,5.62
2019-05-06T15:15:12.141Z,6.70
2019-05-06T15:17:42.468Z,7.42
2019-05-06T15:20:12.105Z,7.30
2019-05-06T15:22:42.053Z,7.20
2019-05-06T15:25:12.796Z,9.58
2019-05-06T15:27:42.616Z,10.18
2019-05-06T15:30:12.785Z,10.72
2019-05-06T15:32:41.280Z,7.55
2019-05-06T15:35:14.150Z,6.95
2019-05-06T15:37:46.957Z,9.75
2019-05-06T15:40:15.413Z,11.83
2019-05-06T15:42:43.961Z,12.50
2019-05-06T15:45:12.722Z,8.50
2019-05-06T15:47:42.586Z,8.70
2019-05-06T15:50:12.790Z,9.73
2019-05-06T15:52:43.540Z,7.62
2019-05-06T15:55:11.661Z,7.78
2019-05-06T15:57:40.247Z,9.63
2019-05-06T16:00:08.835Z,8.18
2019-05-06T16:02:37.319Z,6.65
2019-05-06T16:05:13.893Z,10.55
2019-05-06T16:07:37.549Z,9.93
2019-05-06T16:10:07.691Z,9.80
2019-05-06T16:12:36.147Z,5.72
2019-05-06T16:15:06.413Z,4.97
2019-05-06T16:17:34.889Z,5.00
2019-05-06T16:20:03.777Z,6.65
2019-05-06T16:22:33.839Z,8.65
2019-05-06T16:25:04.086Z,6.60
2019-05-06T16:27:32.553Z,8.15
2019-05-06T16:30:03.403Z,9.25
2019-05-06T16:32:33.219Z,9.55
2019-05-06T16:35:01.454Z,8.38
2019-05-06T16:37:29.928Z,7.60
2019-05-06T16:39:58.412Z,4.78
2019-05-06T16:42:26.889Z,16.80
2019-05-06T16:44:55.387Z,27.40
2019-05-06T16:47:39.518Z,11.73
2019-05-06T16:50:13.820Z,2.98
2019-05-06T16:52:45.334Z,2.45
2019-05-06T16:55:14.071Z,4.65
2019-05-06T16:57:44.115Z,1.85
2019-05-06T17:00:14.168Z,4.95
2019-05-06T17:02:57.994Z,2.65
2019-05-06T17:05:33.985Z,6.65
2019-05-06T17:08:02.989Z,4.90
2019-05-06T17:10:32.344Z,5.60
2019-05-06T17:13:04.124Z,6.08
2019-05-06T17:15:32.908Z,5.55
2019-05-06T17:18:03.093Z,4.55
2019-05-06T17:20:32.701Z,5.85
2019-05-06T17:23:02.855Z,6.12
2019-05-06T17:25:33.474Z,5.17
2019-05-06T17:28:03.353Z,2.35
2019-05-06T17:30:36.392Z,5.37
2019-05-06T17:33:22.844Z,5.65
2019-05-06T17:35:52.165Z,5.75
2019-05-06T17:38:22.495Z,5.05
2019-05-06T17:40:52.399Z,5.50
2019-05-06T17:43:22.547Z,3.72
2019-05-06T17:46:01.981Z,2.85
2019-05-06T17:48:27.547Z,3.02
2019-05-06T17:51:13.455Z,2.77
2019-05-06T17:53:43.067Z,4.30
2019-05-06T17:56:12.561Z,3.72
2019-05-06T17:58:42.342Z,3.10
2019-05-06T18:01:12.629Z,4.25
2019-05-06T18:03:41.222Z,5.37
2019-05-06T18:06:13.922Z,6.87
2019-05-06T18:08:39.953Z,8.58
2019-05-06T18:11:08.432Z,7.72
2019-05-06T18:13:36.922Z,11.68
2019-05-06T18:16:05.382Z,8.70
2019-05-06T18:18:33.873Z,12.43
2019-05-06T18:21:02.601Z,12.15
2019-05-06T18:23:33.417Z,9.93
2019-05-06T18:26:03.147Z,7.83
2019-05-06T18:28:32.367Z,6.95
2019-05-06T18:31:03.135Z,8.58
2019-05-06T18:33:32.719Z,11.65
2019-05-06T18:36:02.558Z,7.83
2019-05-06T18:38:33.517Z,11.65
2019-05-06T18:41:02.044Z,7.53
2019-05-06T18:43:33.140Z,7.53
2019-05-06T18:46:02.789Z,7.90
2019-05-06T18:48:32.523Z,7.60
2019-05-06T18:51:03.033Z,8.70
2019-05-06T18:53:33.117Z,7.72
2019-05-06T18:56:03.075Z,9.03
2019-05-06T18:58:32.468Z,6.00
2019-05-06T19:01:00.954Z,6.60
2019-05-06T19:03:31.971Z,14.13
2019-05-06T19:06:02.319Z,5.20
2019-05-06T19:08:45.101Z,3.00
2019-05-06T19:11:15.634Z,6.10
2019-05-06T19:13:44.132Z,6.17
2019-05-06T19:16:12.815Z,9.20
2019-05-06T19:18:42.646Z,9.53
2019-05-06T19:21:13.283Z,4.72
2019-05-06T19:23:42.777Z,10.58
2019-05-06T19:26:12.331Z,9.60
2019-05-06T19:28:43.047Z,5.97
2019-05-06T19:31:12.340Z,8.50
2019-05-06T19:33:42.955Z,13.22
2019-05-06T19:36:12.646Z,9.55
2019-05-06T19:38:42.381Z,10.78
2019-05-06T19:41:12.852Z,8.48
2019-05-06T19:43:41.277Z,9.98
2019-05-06T19:46:11.984Z,14.05
2019-05-06T19:48:39.952Z,9.50
2019-05-06T19:51:08.433Z,9.23
2019-05-06T19:53:36.909Z,9.60
2019-05-06T19:56:05.394Z,13.03
2019-05-06T19:58:34.158Z,13.75
2019-05-06T20:01:04.043Z,15.10
2019-05-06T20:03:32.871Z,14.43
2019-05-06T20:06:19.337Z,12.80
2019-05-06T20:08:58.647Z,12.30
2019-05-06T20:11:28.703Z,13.78
2019-05-06T20:13:57.183Z,13.65
2019-05-06T20:16:25.676Z,12.65
2019-05-06T20:18:54.163Z,13.25
2019-05-06T20:21:23.046Z,15.65
2019-05-06T20:23:52.655Z,15.08
2019-05-06T20:26:21.970Z,20.50
2019-05-06T20:28:52.535Z,19.40
2019-05-06T20:31:22.617Z,16.87
2019-05-06T20:33:52.873Z,18.80
2019-05-06T20:36:22.555Z,16.77
2019-05-06T20:38:51.250Z,18.82
2019-05-06T20:41:22.032Z,17.98
2019-05-06T20:43:49.951Z,20.00
2019-05-06T20:46:18.441Z,20.27
2019-05-06T20:48:46.914Z,18.45
2019-05-06T20:51:15.407Z,19.70
2019-05-06T20:53:43.899Z,21.87
2019-05-06T20:56:12.522Z,17.98
2019-05-06T20:58:41.998Z,20.02
2019-05-06T21:01:10.654Z,22.45
2019-05-06T21:03:39.216Z,23.73
2019-05-06T21:06:07.697Z,25.27
2019-05-06T21:08:36.185Z,23.83
2019-05-06T21:11:04.666Z,28.27
2019-05-06T21:13:35.510Z,27.20
2019-05-06T21:16:03.373Z,24.63
2019-05-06T21:18:32.489Z,26.90
2019-05-06T21:21:02.109Z,26.48
2019-05-06T21:23:32.142Z,29.23
2019-05-06T21:26:03.077Z,28.80
2019-05-06T21:28:31.043Z,27.80
2019-05-06T21:30:59.520Z,26.40
2019-05-06T21:33:27.998Z,25.23
2019-05-06T21:35:56.485Z,25.32
2019-05-06T21:38:24.952Z,28.10
2019-05-06T21:40:53.439Z,27.87
2019-05-06T21:43:22.718Z,30.45
2019-05-06T21:45:51.311Z,31.50
2019-05-06T21:48:22.096Z,30.35
2019-05-06T21:50:52.064Z,31.35
2019-05-06T21:53:20.190Z,36.45
2019-05-06T21:55:48.660Z,28.47
2019-05-06T21:58:17.137Z,30.50
2019-05-06T22:00:47.199Z,29.45
2019-05-06T22:03:15.876Z,30.85
2019-05-06T22:05:44.375Z,28.38
2019-05-06T22:08:13.074Z,28.90
2019-05-06T22:10:42.238Z,29.67
2019-05-06T22:13:14.118Z,29.32
2019-05-06T22:15:42.141Z,26.55
2019-05-06T22:18:12.425Z,26.50
2019-05-06T22:20:59.253Z,24.65
2019-05-06T22:23:29.307Z,26.65
2019-05-06T22:26:10.805Z,24.57
2019-05-06T22:28:31.436Z,29.10
2019-05-06T22:30:59.770Z,24.10
2019-05-06T22:33:28.252Z,29.27
2019-05-06T22:35:56.732Z,27.62
2019-05-06T22:38:25.211Z,25.02
2019-05-06T22:40:53.694Z,26.55
2019-05-06T22:43:22.178Z,25.68
2019-05-06T22:45:50.654Z,19.57
2019-05-06T22:48:19.143Z,21.10
2019-05-06T22:50:47.618Z,21.33
2019-05-06T22:53:16.094Z,19.70
2019-05-06T22:55:44.577Z,18.80
2019-05-06T22:58:13.061Z,18.60
2019-05-06T23:00:43.110Z,15.90
2019-05-06T23:03:13.152Z,12.85
2019-05-06T23:05:42.316Z,13.22
2019-05-06T23:08:12.293Z,12.40
2019-05-06T23:10:42.286Z,12.18
2019-05-06T23:13:12.406Z,10.55
2019-05-06T23:15:42.068Z,10.93
2019-05-06T23:18:10.739Z,9.85
2019-05-06T23:20:39.212Z,11.35
2019-05-06T23:23:07.673Z,9.75
2019-05-06T23:25:36.154Z,10.08
2019-05-06T23:28:04.829Z,9.98
2019-05-06T23:30:33.559Z,8.03
2019-05-06T23:33:02.140Z,9.10
2019-05-06T23:35:30.616Z,9.35
2019-05-06T23:38:35.648Z,9.88
2019-05-06T23:41:42.287Z,9.38
2019-05-06T23:44:47.528Z,8.28
2019-05-06T23:47:53.129Z,9.38
2019-05-06T23:50:58.283Z,7.92
2019-05-06T23:54:03.184Z,9.70
2019-05-06T23:56:42.849Z,9.38
2019-05-06T23:59:12.566Z,13.43
